sensor_id;sensor_type;location;lat;lon;timestamp;temperature;humidity
30648;DHT22;17683;53.360;9.736;2023-03-14T09:30:37;11.30;99.90
30648;DHT22;17683;53.360;9.736;2023-03-14T09:33:03;11.20;99.90
30648;DHT22;17683;53.360;9.736;2023-03-14T09:35:29;11.20;99.90
30648;DHT22;17683;53.360;9.736;2023-03-14T09:37:55;11.20;99.90
30648;DHT22;17683;53.360;9.736;2023-03-14T09:40:21;11.20;99.90
30648;DHT22;17683;53.360;9.736;2023-03-14T09:42:51;11.20;99.90
30648;DHT22;17683;53.360;9.736;2023-03-14T09:45:25;11.30;99.90
30648;DHT22;17683;53.360;9.736;2023-03-14T09:47:51;11.20;99.90
30648;DHT22;17683;53.360;9.736;2023-03-14T09:50:17;11.20;99.90
30648;DHT22;17683;53.360;9.736;2023-03-14T09:52:48;11.00;99.90
30648;DHT22;17683;53.360;9.736;2023-03-14T09:55:19;10.90;99.90
30648;DHT22;17683;53.360;9.736;2023-03-14T09:57:48;10.80;99.90
30648;DHT22;17683;53.360;9.736;2023-03-14T10:00:19;10.40;99.90
30648;DHT22;17683;53.360;9.736;2023-03-14T10:02:57;10.20;99.90
30648;DHT22;17683;53.360;9.736;2023-03-14T10:05:25;9.80;99.90
30648;DHT22;17683;53.360;9.736;2023-03-14T10:07:53;9.60;99.90
30648;DHT22;17683;53.360;9.736;2023-03-14T10:10:21;9.30;99.90
30648;DHT22;17683;53.360;9.736;2023-03-14T10:12:54;9.00;99.90
30648;DHT22;17683;53.360;9.736;2023-03-14T10:15:30;8.90;99.90
30648;DHT22;17683;53.360;9.736;2023-03-14T10:17:59;8.70;99.90
30648;DHT22;17683;53.360;9.736;2023-03-14T10:20:27;8.50;99.90
30648;DHT22;17683;53.360;9.736;2023-03-14T10:22:57;8.40;99.90
30648;DHT22;17683;53.360;9.736;2023-03-14T10:25:27;8.20;99.90
30648;DHT22;17683;53.360;9.736;2023-03-14T10:27:53;8.10;99.90
30648;DHT22;17683;53.360;9.736;2023-03-14T10:30:40;7.90;99.90
30648;DHT22;17683;53.360;9.736;2023-03-14T10:33:19;7.70;99.90
30648;DHT22;17683;53.360;9.736;2023-03-14T10:35:52;7.50;99.90
30648;DHT22;17683;53.360;9.736;2023-03-14T10:38:18;7.50;99.90
30648;DHT22;17683;53.360;9.736;2023-03-14T10:40:49;7.30;99.90
30648;DHT22;17683;53.360;9.736;2023-03-14T10:43:34;7.20;99.90
30648;DHT22;17683;53.360;9.736;2023-03-14T10:46:14;7.10;99.90
30648;DHT22;17683;53.360;9.736;2023-03-14T10:48:41;6.90;99.90
30648;DHT22;17683;53.360;9.736;2023-03-14T10:51:30;6.80;99.90
30648;DHT22;17683;53.360;9.736;2023-03-14T10:54:14;6.70;99.90
30648;DHT22;17683;53.360;9.736;2023-03-14T10:56:40;6.60;99.90
30648;DHT22;17683;53.360;9.736;2023-03-14T10:59:14;6.60;99.90
30648;DHT22;17683;53.360;9.736;2023-03-14T11:04:54;6.50;99.90
30648;DHT22;17683;53.360;9.736;2023-03-14T11:07:40;6.50;99.90
30648;DHT22;17683;53.360;9.736;2023-03-14T11:23:47;6.30;99.90
30648;DHT22;17683;53.360;9.736;2023-03-14T11:26:55;6.20;99.90
30648;DHT22;17683;53.360;9.736;2023-03-14T11:32:12;6.10;99.90
30648;DHT22;17683;53.360;9.736;2023-03-14T11:34:48;6.00;99.90
30648;DHT22;17683;53.360;9.736;2023-03-14T11:40:03;6.00;99.90
30648;DHT22;17683;53.360;9.736;2023-03-14T11:42:33;6.00;99.90
30648;DHT22;17683;53.360;9.736;2023-03-14T11:45:00;5.90;99.90
30648;DHT22;17683;53.360;9.736;2023-03-14T11:47:32;6.00;99.90
30648;DHT22;17683;53.360;9.736;2023-03-14T11:50:19;6.00;99.90
30648;DHT22;17683;53.360;9.736;2023-03-14T11:53:23;6.00;99.90
30648;DHT22;17683;53.360;9.736;2023-03-14T11:55:47;6.10;99.90
30648;DHT22;17683;53.360;9.736;2023-03-14T11:58:17;6.10;99.90
30648;DHT22;17683;53.360;9.736;2023-03-14T12:00:46;6.10;99.90
30648;DHT22;17683;53.360;9.736;2023-03-14T12:03:35;6.00;99.90
30648;DHT22;17683;53.360;9.736;2023-03-14T12:06:17;6.10;99.90
30648;DHT22;17683;53.360;9.736;2023-03-14T12:08:56;6.00;99.90
30648;DHT22;17683;53.360;9.736;2023-03-14T12:14:01;6.00;99.90
30648;DHT22;17683;53.360;9.736;2023-03-14T12:16:34;6.00;99.90
30648;DHT22;17683;53.360;9.736;2023-03-14T12:21:57;6.00;99.90
30648;DHT22;17683;53.360;9.736;2023-03-14T12:24:28;6.10;99.90
30648;DHT22;17683;53.360;9.736;2023-03-14T12:27:01;6.10;99.90
30648;DHT22;17683;53.360;9.736;2023-03-14T12:29:28;6.20;99.90
30648;DHT22;17683;53.360;9.736;2023-03-14T12:34:33;6.30;99.90
30648;DHT22;17683;53.360;9.736;2023-03-14T12:40:33;6.30;99.90
30648;DHT22;17683;53.360;9.736;2023-03-14T12:43:10;6.40;99.90
30648;DHT22;17683;53.360;9.736;2023-03-14T12:48:42;6.40;99.90
30648;DHT22;17683;53.360;9.736;2023-03-14T12:51:19;6.40;99.90
30648;DHT22;17683;53.360;9.736;2023-03-14T13:02:13;6.40;99.90
30648;DHT22;17683;53.360;9.736;2023-03-14T13:10:15;6.60;99.90
30648;DHT22;17683;53.360;9.736;2023-03-14T13:12:50;6.70;99.90
30648;DHT22;17683;53.360;9.736;2023-03-14T13:15:49;6.80;99.90
30648;DHT22;17683;53.360;9.736;2023-03-14T13:21:15;6.90;99.90
30648;DHT22;17683;53.360;9.736;2023-03-14T13:24:01;6.90;99.90
30648;DHT22;17683;53.360;9.736;2023-03-14T13:26:39;6.90;99.90
30648;DHT22;17683;53.360;9.736;2023-03-14T13:29:32;6.90;99.90
30648;DHT22;17683;53.360;9.736;2023-03-14T13:32:16;6.90;99.90
30648;DHT22;17683;53.360;9.736;2023-03-14T13:34:43;6.70;99.90
30648;DHT22;17683;53.360;9.736;2023-03-14T13:37:38;6.70;99.90
30648;DHT22;17683;53.360;9.736;2023-03-14T13:40:05;6.80;99.90
30648;DHT22;17683;53.360;9.736;2023-03-14T13:42:43;6.80;99.90
30648;DHT22;17683;53.360;9.736;2023-03-14T13:45:13;6.80;99.90
30648;DHT22;17683;53.360;9.736;2023-03-14T13:47:39;6.90;99.90
30648;DHT22;17683;53.360;9.736;2023-03-14T13:50:12;7.00;99.90
30648;DHT22;17683;53.360;9.736;2023-03-14T13:52:38;7.00;99.90
30648;DHT22;17683;53.360;9.736;2023-03-14T13:55:06;7.10;99.90
30648;DHT22;17683;53.360;9.736;2023-03-14T13:57:46;7.10;99.90
30648;DHT22;17683;53.360;9.736;2023-03-14T14:00:24;7.10;99.90
30648;DHT22;17683;53.360;9.736;2023-03-14T14:02:58;7.00;99.90
30648;DHT22;17683;53.360;9.736;2023-03-14T14:05:29;6.90;99.90
30648;DHT22;17683;53.360;9.736;2023-03-14T14:07:55;6.80;99.90
30648;DHT22;17683;53.360;9.736;2023-03-14T14:10:22;6.80;99.90
30648;DHT22;17683;53.360;9.736;2023-03-14T14:13:03;6.80;99.90
30648;DHT22;17683;53.360;9.736;2023-03-14T14:15:40;6.70;99.90
30648;DHT22;17683;53.360;9.736;2023-03-14T14:18:09;6.70;99.90
30648;DHT22;17683;53.360;9.736;2023-03-14T14:20:42;6.70;99.90
30648;DHT22;17683;53.360;9.736;2023-03-14T14:23:34;6.70;99.90
30648;DHT22;17683;53.360;9.736;2023-03-14T14:26:01;6.70;99.90
30648;DHT22;17683;53.360;9.736;2023-03-14T14:28:35;6.70;99.90
30648;DHT22;17683;53.360;9.736;2023-03-14T14:33:44;6.50;99.90
30648;DHT22;17683;53.360;9.736;2023-03-14T14:36:19;6.40;99.90
30648;DHT22;17683;53.360;9.736;2023-03-14T14:39:00;6.30;99.90
30648;DHT22;17683;53.360;9.736;2023-03-14T14:41:32;6.30;99.90
30648;DHT22;17683;53.360;9.736;2023-03-14T14:44:03;6.20;99.90
30648;DHT22;17683;53.360;9.736;2023-03-14T14:46:31;6.20;99.90
30648;DHT22;17683;53.360;9.736;2023-03-14T14:49:14;6.20;99.90
30648;DHT22;17683;53.360;9.736;2023-03-14T14:52:06;6.20;99.90
30648;DHT22;17683;53.360;9.736;2023-03-14T14:54:40;6.20;99.90
30648;DHT22;17683;53.360;9.736;2023-03-14T14:57:21;6.30;99.90
30648;DHT22;17683;53.360;9.736;2023-03-14T14:59:49;6.30;99.90
30648;DHT22;17683;53.360;9.736;2023-03-14T15:02:39;6.40;99.90
30648;DHT22;17683;53.360;9.736;2023-03-14T15:05:28;6.40;99.90
30648;DHT22;17683;53.360;9.736;2023-03-14T15:08:01;6.40;99.90
30648;DHT22;17683;53.360;9.736;2023-03-14T15:10:26;6.50;99.90
30648;DHT22;17683;53.360;9.736;2023-03-14T15:12:52;6.50;99.90
30648;DHT22;17683;53.360;9.736;2023-03-14T15:15:19;6.50;99.90
30648;DHT22;17683;53.360;9.736;2023-03-14T15:17:44;6.40;99.90
30648;DHT22;17683;53.360;9.736;2023-03-14T15:20:13;6.50;99.90
30648;DHT22;17683;53.360;9.736;2023-03-14T15:22:39;6.50;99.90
30648;DHT22;17683;53.360;9.736;2023-03-14T15:25:05;6.40;99.90
30648;DHT22;17683;53.360;9.736;2023-03-14T15:27:31;6.40;99.90
30648;DHT22;17683;53.360;9.736;2023-03-14T15:29:58;6.40;99.90
30648;DHT22;17683;53.360;9.736;2023-03-14T15:32:24;6.40;99.90
30648;DHT22;17683;53.360;9.736;2023-03-14T15:34:55;6.40;99.90
30648;DHT22;17683;53.360;9.736;2023-03-14T15:37:21;6.40;99.90
30648;DHT22;17683;53.360;9.736;2023-03-14T15:39:47;6.40;99.90
30648;DHT22;17683;53.360;9.736;2023-03-14T15:42:13;6.40;99.90
30648;DHT22;17683;53.360;9.736;2023-03-14T15:44:39;6.30;99.90
30648;DHT22;17683;53.360;9.736;2023-03-14T15:47:05;6.30;99.90
30648;DHT22;17683;53.360;9.736;2023-03-14T15:49:31;6.30;99.90
30648;DHT22;17683;53.360;9.736;2023-03-14T15:51:58;6.30;99.90
30648;DHT22;17683;53.360;9.736;2023-03-14T15:54:24;6.30;99.90
30648;DHT22;17683;53.360;9.736;2023-03-14T15:56:56;6.20;99.90
30648;DHT22;17683;53.360;9.736;2023-03-14T15:59:23;6.20;99.90
30648;DHT22;17683;53.360;9.736;2023-03-14T16:01:49;6.10;99.90
30648;DHT22;17683;53.360;9.736;2023-03-14T16:04:15;6.20;99.90
30648;DHT22;17683;53.360;9.736;2023-03-14T16:06:40;6.10;99.90
30648;DHT22;17683;53.360;9.736;2023-03-14T16:09:07;6.10;99.90
30648;DHT22;17683;53.360;9.736;2023-03-14T16:11:33;6.10;99.90
30648;DHT22;17683;53.360;9.736;2023-03-14T16:13:58;6.10;99.90
30648;DHT22;17683;53.360;9.736;2023-03-14T16:16:24;6.10;99.90
30648;DHT22;17683;53.360;9.736;2023-03-14T16:18:50;6.10;99.90
30648;DHT22;17683;53.360;9.736;2023-03-14T16:21:18;6.10;99.90
30648;DHT22;17683;53.360;9.736;2023-03-14T16:23:44;6.10;99.90
30648;DHT22;17683;53.360;9.736;2023-03-14T16:26:13;6.10;99.90
30648;DHT22;17683;53.360;9.736;2023-03-14T16:28:40;6.10;99.90
30648;DHT22;17683;53.360;9.736;2023-03-14T16:31:11;6.00;99.90
30648;DHT22;17683;53.360;9.736;2023-03-14T16:33:38;6.00;99.90
30648;DHT22;17683;53.360;9.736;2023-03-14T16:36:06;5.90;99.90
30648;DHT22;17683;53.360;9.736;2023-03-14T16:38:35;5.80;99.90
30648;DHT22;17683;53.360;9.736;2023-03-14T16:41:11;5.80;99.90
30648;DHT22;17683;53.360;9.736;2023-03-14T16:43:38;5.70;99.90
30648;DHT22;17683;53.360;9.736;2023-03-14T16:46:06;5.70;99.90
30648;DHT22;17683;53.360;9.736;2023-03-14T16:48:32;5.60;99.90
30648;DHT22;17683;53.360;9.736;2023-03-14T16:50:58;5.60;99.90
30648;DHT22;17683;53.360;9.736;2023-03-14T16:53:24;5.60;99.90
30648;DHT22;17683;53.360;9.736;2023-03-14T16:55:53;5.60;99.90
30648;DHT22;17683;53.360;9.736;2023-03-14T16:58:19;5.60;99.90
30648;DHT22;17683;53.360;9.736;2023-03-14T17:00:46;5.60;99.90
30648;DHT22;17683;53.360;9.736;2023-03-14T17:03:12;5.50;99.90
30648;DHT22;17683;53.360;9.736;2023-03-14T17:05:47;5.30;99.90
30648;DHT22;17683;53.360;9.736;2023-03-14T17:08:15;5.20;99.90
30648;DHT22;17683;53.360;9.736;2023-03-14T17:10:42;5.10;99.90
30648;DHT22;17683;53.360;9.736;2023-03-14T17:13:08;5.00;99.90
30648;DHT22;17683;53.360;9.736;2023-03-14T17:15:34;4.90;99.90
30648;DHT22;17683;53.360;9.736;2023-03-14T17:18:00;4.90;99.90
30648;DHT22;17683;53.360;9.736;2023-03-14T17:20:27;4.80;99.90
30648;DHT22;17683;53.360;9.736;2023-03-14T17:22:54;4.80;99.90
30648;DHT22;17683;53.360;9.736;2023-03-14T17:25:20;4.80;99.90
30648;DHT22;17683;53.360;9.736;2023-03-14T17:27:45;4.80;99.90
30648;DHT22;17683;53.360;9.736;2023-03-14T17:30:11;4.80;99.90
30648;DHT22;17683;53.360;9.736;2023-03-14T17:32:37;4.80;99.90
30648;DHT22;17683;53.360;9.736;2023-03-14T17:35:03;4.70;99.90
30648;DHT22;17683;53.360;9.736;2023-03-14T17:37:29;4.70;99.90
30648;DHT22;17683;53.360;9.736;2023-03-14T17:39:55;4.60;99.90
30648;DHT22;17683;53.360;9.736;2023-03-14T17:42:21;4.50;99.90
30648;DHT22;17683;53.360;9.736;2023-03-14T17:44:46;4.50;99.90
30648;DHT22;17683;53.360;9.736;2023-03-14T17:47:12;4.50;99.90
30648;DHT22;17683;53.360;9.736;2023-03-14T17:49:38;4.50;99.90
30648;DHT22;17683;53.360;9.736;2023-03-14T17:52:05;4.50;99.90
30648;DHT22;17683;53.360;9.736;2023-03-14T17:54:33;4.30;99.90
30648;DHT22;17683;53.360;9.736;2023-03-14T17:56:58;4.40;99.90
30648;DHT22;17683;53.360;9.736;2023-03-14T17:59:24;4.40;99.90
30648;DHT22;17683;53.360;9.736;2023-03-14T18:01:59;4.40;99.90
30648;DHT22;17683;53.360;9.736;2023-03-14T18:04:25;4.40;99.90
30648;DHT22;17683;53.360;9.736;2023-03-14T18:06:51;4.40;99.90
30648;DHT22;17683;53.360;9.736;2023-03-14T18:09:17;4.40;99.90
30648;DHT22;17683;53.360;9.736;2023-03-14T18:11:42;4.40;99.90
30648;DHT22;17683;53.360;9.736;2023-03-14T18:14:08;4.30;99.90
30648;DHT22;17683;53.360;9.736;2023-03-14T18:16:36;4.20;99.90
30648;DHT22;17683;53.360;9.736;2023-03-14T18:19:02;4.20;99.90
30648;DHT22;17683;53.360;9.736;2023-03-14T18:21:28;4.10;99.90
30648;DHT22;17683;53.360;9.736;2023-03-14T18:23:55;4.00;99.90
30648;DHT22;17683;53.360;9.736;2023-03-14T18:26:21;4.00;99.90
30648;DHT22;17683;53.360;9.736;2023-03-14T18:28:49;3.90;99.90
30648;DHT22;17683;53.360;9.736;2023-03-14T18:31:16;4.00;99.90
30648;DHT22;17683;53.360;9.736;2023-03-14T18:33:47;3.90;99.90
30648;DHT22;17683;53.360;9.736;2023-03-14T18:36:13;3.90;99.90
30648;DHT22;17683;53.360;9.736;2023-03-14T18:38:39;3.90;99.90
30648;DHT22;17683;53.360;9.736;2023-03-14T18:41:12;3.90;99.90
30648;DHT22;17683;53.360;9.736;2023-03-14T18:43:39;3.90;99.90
30648;DHT22;17683;53.360;9.736;2023-03-14T18:46:05;3.90;99.90
30648;DHT22;17683;53.360;9.736;2023-03-14T18:48:32;3.90;99.90
30648;DHT22;17683;53.360;9.736;2023-03-14T18:50:58;3.90;99.90
30648;DHT22;17683;53.360;9.736;2023-03-14T18:53:25;3.90;99.90
30648;DHT22;17683;53.360;9.736;2023-03-14T18:55:57;3.90;99.90
30648;DHT22;17683;53.360;9.736;2023-03-14T18:58:23;3.90;99.90
30648;DHT22;17683;53.360;9.736;2023-03-14T19:01:02;3.90;99.90
30648;DHT22;17683;53.360;9.736;2023-03-14T19:03:30;3.90;99.90
30648;DHT22;17683;53.360;9.736;2023-03-14T19:05:56;3.90;99.90
30648;DHT22;17683;53.360;9.736;2023-03-14T19:08:24;3.90;99.90
30648;DHT22;17683;53.360;9.736;2023-03-14T19:10:54;3.90;99.90
30648;DHT22;17683;53.360;9.736;2023-03-14T19:13:21;3.80;99.90
30648;DHT22;17683;53.360;9.736;2023-03-14T19:15:47;3.80;99.90
30648;DHT22;17683;53.360;9.736;2023-03-14T19:18:13;3.80;99.90
30648;DHT22;17683;53.360;9.736;2023-03-14T19:20:40;3.80;99.90
30648;DHT22;17683;53.360;9.736;2023-03-14T19:23:07;3.80;99.90
30648;DHT22;17683;53.360;9.736;2023-03-14T19:25:33;3.80;99.90
30648;DHT22;17683;53.360;9.736;2023-03-14T19:27:59;3.70;99.90
30648;DHT22;17683;53.360;9.736;2023-03-14T19:30:26;3.80;99.90
30648;DHT22;17683;53.360;9.736;2023-03-14T19:32:52;3.70;99.90
30648;DHT22;17683;53.360;9.736;2023-03-14T19:35:18;3.70;99.90
30648;DHT22;17683;53.360;9.736;2023-03-14T19:37:44;3.60;99.90
30648;DHT22;17683;53.360;9.736;2023-03-14T19:40:11;3.60;99.90
30648;DHT22;17683;53.360;9.736;2023-03-14T19:42:37;3.60;99.90
30648;DHT22;17683;53.360;9.736;2023-03-14T19:45:03;3.50;99.90
30648;DHT22;17683;53.360;9.736;2023-03-14T19:47:30;3.50;99.90
30648;DHT22;17683;53.360;9.736;2023-03-14T19:49:56;3.50;99.90
30648;DHT22;17683;53.360;9.736;2023-03-14T19:52:25;3.50;99.90
30648;DHT22;17683;53.360;9.736;2023-03-14T19:54:51;3.40;99.90
30648;DHT22;17683;53.360;9.736;2023-03-14T19:57:17;3.40;99.90
30648;DHT22;17683;53.360;9.736;2023-03-14T19:59:44;3.40;99.90
30648;DHT22;17683;53.360;9.736;2023-03-14T20:02:14;3.40;99.90
30648;DHT22;17683;53.360;9.736;2023-03-14T20:04:40;3.40;99.90
30648;DHT22;17683;53.360;9.736;2023-03-14T20:07:12;3.40;99.90
30648;DHT22;17683;53.360;9.736;2023-03-14T20:09:39;3.30;99.90
30648;DHT22;17683;53.360;9.736;2023-03-14T20:12:08;3.30;99.90
30648;DHT22;17683;53.360;9.736;2023-03-14T20:14:35;3.30;99.90
30648;DHT22;17683;53.360;9.736;2023-03-14T20:17:01;3.30;99.90
30648;DHT22;17683;53.360;9.736;2023-03-14T20:19:26;3.20;99.90
30648;DHT22;17683;53.360;9.736;2023-03-14T20:21:52;3.30;99.90
30648;DHT22;17683;53.360;9.736;2023-03-14T20:24:18;3.30;99.90
30648;DHT22;17683;53.360;9.736;2023-03-14T20:26:45;3.20;99.90
30648;DHT22;17683;53.360;9.736;2023-03-14T20:29:10;3.20;99.90
30648;DHT22;17683;53.360;9.736;2023-03-14T20:31:40;3.30;99.90
30648;DHT22;17683;53.360;9.736;2023-03-14T20:34:06;3.20;99.90
30648;DHT22;17683;53.360;9.736;2023-03-14T20:36:32;3.20;99.90
30648;DHT22;17683;53.360;9.736;2023-03-14T20:39:03;3.30;99.90
30648;DHT22;17683;53.360;9.736;2023-03-14T20:41:30;3.30;99.90
30648;DHT22;17683;53.360;9.736;2023-03-14T20:43:56;3.30;99.90
30648;DHT22;17683;53.360;9.736;2023-03-14T20:46:23;3.30;99.90
30648;DHT22;17683;53.360;9.736;2023-03-14T20:48:49;3.20;99.90
30648;DHT22;17683;53.360;9.736;2023-03-14T20:51:14;3.30;99.90
30648;DHT22;17683;53.360;9.736;2023-03-14T20:53:41;3.20;99.90
30648;DHT22;17683;53.360;9.736;2023-03-14T20:56:07;3.10;99.90
30648;DHT22;17683;53.360;9.736;2023-03-14T20:58:33;3.20;99.90
30648;DHT22;17683;53.360;9.736;2023-03-14T21:00:59;3.20;99.90
30648;DHT22;17683;53.360;9.736;2023-03-14T21:03:27;3.10;99.90
30648;DHT22;17683;53.360;9.736;2023-03-14T21:05:53;3.10;99.90
30648;DHT22;17683;53.360;9.736;2023-03-14T21:08:21;3.10;99.90
30648;DHT22;17683;53.360;9.736;2023-03-14T21:10:52;3.20;99.90
30648;DHT22;17683;53.360;9.736;2023-03-14T21:13:18;3.20;99.90
30648;DHT22;17683;53.360;9.736;2023-03-14T21:15:44;3.20;99.90
30648;DHT22;17683;53.360;9.736;2023-03-14T21:18:10;3.10;99.90
30648;DHT22;17683;53.360;9.736;2023-03-14T21:20:37;3.10;99.90
30648;DHT22;17683;53.360;9.736;2023-03-14T21:23:04;3.10;99.90
30648;DHT22;17683;53.360;9.736;2023-03-14T21:25:31;3.10;99.90
30648;DHT22;17683;53.360;9.736;2023-03-14T21:27:57;3.00;99.90
30648;DHT22;17683;53.360;9.736;2023-03-14T21:30:24;3.00;99.90
30648;DHT22;17683;53.360;9.736;2023-03-14T21:32:50;3.00;99.90
30648;DHT22;17683;53.360;9.736;2023-03-14T21:35:16;3.00;99.90
30648;DHT22;17683;53.360;9.736;2023-03-14T21:37:41;3.00;99.90
30648;DHT22;17683;53.360;9.736;2023-03-14T21:40:12;3.00;99.90
30648;DHT22;17683;53.360;9.736;2023-03-14T21:42:37;2.90;99.90
30648;DHT22;17683;53.360;9.736;2023-03-14T21:45:04;2.90;99.90
30648;DHT22;17683;53.360;9.736;2023-03-14T21:47:29;2.90;99.90
30648;DHT22;17683;53.360;9.736;2023-03-14T21:49:55;2.90;99.90
30648;DHT22;17683;53.360;9.736;2023-03-14T21:52:21;2.90;99.90
30648;DHT22;17683;53.360;9.736;2023-03-14T21:54:47;2.80;99.90
30648;DHT22;17683;53.360;9.736;2023-03-14T21:57:14;2.80;99.90
30648;DHT22;17683;53.360;9.736;2023-03-14T21:59:40;2.70;99.90
30648;DHT22;17683;53.360;9.736;2023-03-14T22:02:10;2.80;99.90
30648;DHT22;17683;53.360;9.736;2023-03-14T22:04:37;2.80;99.90
30648;DHT22;17683;53.360;9.736;2023-03-14T22:07:05;2.80;99.90
30648;DHT22;17683;53.360;9.736;2023-03-14T22:09:31;2.80;99.90
30648;DHT22;17683;53.360;9.736;2023-03-14T22:11:57;2.70;99.90
30648;DHT22;17683;53.360;9.736;2023-03-14T22:14:23;2.70;99.90
30648;DHT22;17683;53.360;9.736;2023-03-14T22:16:52;2.70;99.90
30648;DHT22;17683;53.360;9.736;2023-03-14T22:19:19;2.60;99.90
30648;DHT22;17683;53.360;9.736;2023-03-14T22:21:46;2.60;99.90
30648;DHT22;17683;53.360;9.736;2023-03-14T22:24:12;2.60;99.90
30648;DHT22;17683;53.360;9.736;2023-03-14T22:26:38;2.60;99.90
30648;DHT22;17683;53.360;9.736;2023-03-14T22:29:04;2.60;99.90
30648;DHT22;17683;53.360;9.736;2023-03-14T22:31:30;2.50;99.90
30648;DHT22;17683;53.360;9.736;2023-03-14T22:33:56;2.60;99.90
30648;DHT22;17683;53.360;9.736;2023-03-14T22:36:22;2.50;99.90
30648;DHT22;17683;53.360;9.736;2023-03-14T22:38:47;2.40;99.90
30648;DHT22;17683;53.360;9.736;2023-03-14T22:41:13;2.50;99.90
30648;DHT22;17683;53.360;9.736;2023-03-14T22:43:39;2.50;99.90
30648;DHT22;17683;53.360;9.736;2023-03-14T22:46:06;2.60;99.90
30648;DHT22;17683;53.360;9.736;2023-03-14T22:48:32;2.50;99.90
30648;DHT22;17683;53.360;9.736;2023-03-14T22:50:58;2.50;99.90
30648;DHT22;17683;53.360;9.736;2023-03-14T22:53:25;2.50;99.90
30648;DHT22;17683;53.360;9.736;2023-03-14T22:55:58;2.40;99.90
30648;DHT22;17683;53.360;9.736;2023-03-14T22:58:24;2.50;99.90
30648;DHT22;17683;53.360;9.736;2023-03-14T23:00:49;2.50;99.90
30648;DHT22;17683;53.360;9.736;2023-03-14T23:03:15;2.40;99.90
30648;DHT22;17683;53.360;9.736;2023-03-14T23:05:41;2.40;99.90
30648;DHT22;17683;53.360;9.736;2023-03-14T23:08:06;2.40;99.90
30648;DHT22;17683;53.360;9.736;2023-03-14T23:10:32;2.40;99.90
30648;DHT22;17683;53.360;9.736;2023-03-14T23:12:58;2.30;99.90
30648;DHT22;17683;53.360;9.736;2023-03-14T23:15:25;2.30;99.90
30648;DHT22;17683;53.360;9.736;2023-03-14T23:17:51;2.30;99.90
30648;DHT22;17683;53.360;9.736;2023-03-14T23:20:16;2.30;99.90
30648;DHT22;17683;53.360;9.736;2023-03-14T23:22:42;2.30;99.90
30648;DHT22;17683;53.360;9.736;2023-03-14T23:25:11;2.20;99.90
30648;DHT22;17683;53.360;9.736;2023-03-14T23:27:37;2.20;99.90
30648;DHT22;17683;53.360;9.736;2023-03-14T23:30:03;2.20;99.90
30648;DHT22;17683;53.360;9.736;2023-03-14T23:32:29;2.20;99.90
30648;DHT22;17683;53.360;9.736;2023-03-14T23:34:56;2.20;99.90
30648;DHT22;17683;53.360;9.736;2023-03-14T23:37:22;2.30;99.90
30648;DHT22;17683;53.360;9.736;2023-03-14T23:39:49;2.30;99.90
30648;DHT22;17683;53.360;9.736;2023-03-14T23:42:15;2.30;99.90
30648;DHT22;17683;53.360;9.736;2023-03-14T23:44:41;2.30;99.90
30648;DHT22;17683;53.360;9.736;2023-03-14T23:47:07;2.30;99.90
30648;DHT22;17683;53.360;9.736;2023-03-14T23:49:33;2.30;99.90
30648;DHT22;17683;53.360;9.736;2023-03-14T23:51:59;2.30;99.90
30648;DHT22;17683;53.360;9.736;2023-03-14T23:54:25;2.30;99.90
30648;DHT22;17683;53.360;9.736;2023-03-14T23:56:55;2.30;99.90
30648;DHT22;17683;53.360;9.736;2023-03-14T23:59:21;2.40;99.90
